sensor_id;sensor_type;location;lat;lon;timestamp;pressure;altitude;pressure_sealevel;temperature;humidity
12868;BME280;33517;49.866;8.320;2023-10-19T00:01:39;98714.03;;;12.51;91.41
12868;BME280;33517;49.866;8.320;2023-10-19T00:04:30;98714.63;;;12.53;92.24
12868;BME280;33517;49.866;8.320;2023-10-19T00:07:23;98717.16;;;12.59;91.06
12868;BME280;33517;49.866;8.320;2023-10-19T00:10:16;98708.84;;;12.62;92.31
12868;BME280;33517;49.866;8.320;2023-10-19T00:13:08;98700.09;;;12.62;93.41
12868;BME280;33517;49.866;8.320;2023-10-19T00:16:02;98704.28;;;12.69;91.94
12868;BME280;33517;49.866;8.320;2023-10-19T00:19:01;98694.25;;;12.78;91.61
12868;BME280;33517;49.866;8.320;2023-10-19T00:21:54;98694.50;;;12.88;91.90
12868;BME280;33517;49.866;8.320;2023-10-19T00:24:46;98685.72;;;12.94;91.35
12868;BME280;33517;49.866;8.320;2023-10-19T00:27:39;98692.16;;;12.98;91.78
12868;BME280;33517;49.866;8.320;2023-10-19T00:30:33;98696.19;;;13.01;92.29
12868;BME280;33517;49.866;8.320;2023-10-19T00:33:26;98699.28;;;12.97;94.21
12868;BME280;33517;49.866;8.320;2023-10-19T00:36:19;98692.03;;;12.93;94.13
12868;BME280;33517;49.866;8.320;2023-10-19T00:39:12;98697.47;;;12.80;97.87
12868;BME280;33517;49.866;8.320;2023-10-19T00:42:11;98686.56;;;12.76;100.00
12868;BME280;33517;49.866;8.320;2023-10-19T00:45:08;98690.44;;;12.74;100.00
12868;BME280;33517;49.866;8.320;2023-10-19T00:48:04;98685.75;;;12.76;100.00
12868;BME280;33517;49.866;8.320;2023-10-19T00:50:58;98684.56;;;12.72;100.00
12868;BME280;33517;49.866;8.320;2023-10-19T00:54:02;98678.13;;;12.68;100.00
12868;BME280;33517;49.866;8.320;2023-10-19T00:56:59;98683.41;;;12.68;100.00
12868;BME280;33517;49.866;8.320;2023-10-19T00:59:55;98673.00;;;12.55;100.00
12868;BME280;33517;49.866;8.320;2023-10-19T01:03:04;98666.53;;;12.51;100.00
12868;BME280;33517;49.866;8.320;2023-10-19T01:06:00;98663.91;;;12.51;100.00
12868;BME280;33517;49.866;8.320;2023-10-19T01:08:55;98667.78;;;12.48;100.00
12868;BME280;33517;49.866;8.320;2023-10-19T01:11:47;98663.69;;;12.52;100.00
12868;BME280;33517;49.866;8.320;2023-10-19T01:14:40;98651.06;;;12.54;100.00
12868;BME280;33517;49.866;8.320;2023-10-19T01:17:32;98640.47;;;12.61;100.00
12868;BME280;33517;49.866;8.320;2023-10-19T01:20:31;98652.03;;;12.60;100.00
12868;BME280;33517;49.866;8.320;2023-10-19T01:23:40;98637.72;;;12.67;100.00
12868;BME280;33517;49.866;8.320;2023-10-19T01:26:32;98635.31;;;12.66;100.00
12868;BME280;33517;49.866;8.320;2023-10-19T01:29:27;98635.81;;;12.74;100.00
12868;BME280;33517;49.866;8.320;2023-10-19T01:32:19;98646.16;;;12.76;100.00
12868;BME280;33517;49.866;8.320;2023-10-19T01:35:13;98637.19;;;12.77;100.00
12868;BME280;33517;49.866;8.320;2023-10-19T01:38:05;98632.97;;;12.76;100.00
12868;BME280;33517;49.866;8.320;2023-10-19T01:40:59;98629.50;;;12.75;100.00
12868;BME280;33517;49.866;8.320;2023-10-19T01:43:52;98634.13;;;12.80;100.00
12868;BME280;33517;49.866;8.320;2023-10-19T01:46:44;98633.91;;;12.81;100.00
12868;BME280;33517;49.866;8.320;2023-10-19T01:49:37;98626.06;;;12.75;100.00
12868;BME280;33517;49.866;8.320;2023-10-19T01:52:28;98624.16;;;12.82;100.00
12868;BME280;33517;49.866;8.320;2023-10-19T01:55:20;98623.34;;;12.81;100.00
12868;BME280;33517;49.866;8.320;2023-10-19T01:58:13;98612.44;;;12.78;100.00
12868;BME280;33517;49.866;8.320;2023-10-19T02:01:06;98619.34;;;12.90;100.00
12868;BME280;33517;49.866;8.320;2023-10-19T02:04:05;98616.63;;;12.97;100.00
12868;BME280;33517;49.866;8.320;2023-10-19T02:06:59;98617.38;;;13.04;100.00
12868;BME280;33517;49.866;8.320;2023-10-19T02:09:53;98613.31;;;13.02;100.00
12868;BME280;33517;49.866;8.320;2023-10-19T02:12:45;98613.19;;;12.96;100.00
12868;BME280;33517;49.866;8.320;2023-10-19T02:15:38;98609.72;;;12.96;100.00
12868;BME280;33517;49.866;8.320;2023-10-19T02:18:30;98608.78;;;12.90;100.00
12868;BME280;33517;49.866;8.320;2023-10-19T02:21:25;98601.81;;;12.96;100.00
12868;BME280;33517;49.866;8.320;2023-10-19T02:24:21;98597.22;;;12.91;100.00
12868;BME280;33517;49.866;8.320;2023-10-19T02:27:13;98596.75;;;12.94;100.00
12868;BME280;33517;49.866;8.320;2023-10-19T02:30:05;98585.97;;;12.96;100.00
12868;BME280;33517;49.866;8.320;2023-10-19T02:32:59;98585.06;;;13.02;100.00
12868;BME280;33517;49.866;8.320;2023-10-19T02:35:50;98584.25;;;13.02;100.00
12868;BME280;33517;49.866;8.320;2023-10-19T02:38:43;98594.78;;;13.08;100.00
12868;BME280;33517;49.866;8.320;2023-10-19T02:41:40;98587.78;;;13.14;100.00
12868;BME280;33517;49.866;8.320;2023-10-19T02:44:32;98586.63;;;13.10;100.00
12868;BME280;33517;49.866;8.320;2023-10-19T02:47:25;98575.16;;;13.16;100.00
12868;BME280;33517;49.866;8.320;2023-10-19T02:50:20;98580.44;;;13.16;100.00
12868;BME280;33517;49.866;8.320;2023-10-19T02:53:14;98576.66;;;13.23;100.00
12868;BME280;33517;49.866;8.320;2023-10-19T02:56:10;98572.63;;;13.21;100.00
12868;BME280;33517;49.866;8.320;2023-10-19T02:59:03;98573.78;;;13.25;100.00
12868;BME280;33517;49.866;8.320;2023-10-19T03:01:56;98570.91;;;13.15;100.00
12868;BME280;33517;49.866;8.320;2023-10-19T03:04:52;98577.72;;;13.22;100.00
12868;BME280;33517;49.866;8.320;2023-10-19T03:07:45;98568.84;;;13.28;100.00
12868;BME280;33517;49.866;8.320;2023-10-19T03:10:37;98579.56;;;13.33;100.00
12868;BME280;33517;49.866;8.320;2023-10-19T03:13:32;98576.56;;;13.30;100.00
12868;BME280;33517;49.866;8.320;2023-10-19T03:16:24;98577.56;;;13.17;100.00
12868;BME280;33517;49.866;8.320;2023-10-19T03:19:18;98579.28;;;13.12;100.00
12868;BME280;33517;49.866;8.320;2023-10-19T03:22:10;98575.94;;;13.05;100.00
12868;BME280;33517;49.866;8.320;2023-10-19T03:25:04;98567.06;;;12.99;100.00
12868;BME280;33517;49.866;8.320;2023-10-19T03:28:23;98565.06;;;12.94;100.00
12868;BME280;33517;49.866;8.320;2023-10-19T03:31:16;98562.31;;;12.89;100.00
12868;BME280;33517;49.866;8.320;2023-10-19T03:34:09;98578.00;;;12.84;100.00
12868;BME280;33517;49.866;8.320;2023-10-19T03:37:03;98559.09;;;12.87;100.00
12868;BME280;33517;49.866;8.320;2023-10-19T03:39:58;98556.34;;;12.94;100.00
12868;BME280;33517;49.866;8.320;2023-10-19T03:42:51;98545.53;;;12.84;100.00
12868;BME280;33517;49.866;8.320;2023-10-19T03:45:45;98549.06;;;12.78;100.00
12868;BME280;33517;49.866;8.320;2023-10-19T03:48:41;98538.38;;;12.73;100.00
12868;BME280;33517;49.866;8.320;2023-10-19T03:51:37;98523.56;;;12.72;100.00
12868;BME280;33517;49.866;8.320;2023-10-19T03:54:48;98528.63;;;12.73;100.00
12868;BME280;33517;49.866;8.320;2023-10-19T03:57:41;98519.81;;;12.79;100.00
12868;BME280;33517;49.866;8.320;2023-10-19T04:00:38;98521.22;;;12.82;100.00
12868;BME280;33517;49.866;8.320;2023-10-19T04:03:30;98516.28;;;12.85;100.00
12868;BME280;33517;49.866;8.320;2023-10-19T04:06:22;98509.88;;;12.93;100.00
12868;BME280;33517;49.866;8.320;2023-10-19T04:09:14;98506.06;;;12.89;100.00
12868;BME280;33517;49.866;8.320;2023-10-19T04:12:08;98499.75;;;12.90;100.00
12868;BME280;33517;49.866;8.320;2023-10-19T04:15:02;98503.19;;;12.90;100.00
12868;BME280;33517;49.866;8.320;2023-10-19T04:18:03;98493.56;;;12.96;100.00
12868;BME280;33517;49.866;8.320;2023-10-19T04:21:00;98492.91;;;13.01;100.00
12868;BME280;33517;49.866;8.320;2023-10-19T04:23:53;98506.00;;;13.07;100.00
12868;BME280;33517;49.866;8.320;2023-10-19T04:26:47;98507.28;;;13.05;100.00
12868;BME280;33517;49.866;8.320;2023-10-19T04:29:39;98498.19;;;13.01;100.00
12868;BME280;33517;49.866;8.320;2023-10-19T04:32:34;98509.16;;;12.97;100.00
12868;BME280;33517;49.866;8.320;2023-10-19T04:35:27;98505.06;;;13.02;100.00
12868;BME280;33517;49.866;8.320;2023-10-19T04:38:23;98500.00;;;13.00;100.00
12868;BME280;33517;49.866;8.320;2023-10-19T04:41:15;98490.53;;;13.11;100.00
12868;BME280;33517;49.866;8.320;2023-10-19T04:44:07;98498.19;;;13.01;100.00
12868;BME280;33517;49.866;8.320;2023-10-19T04:46:59;98501.81;;;12.99;100.00
12868;BME280;33517;49.866;8.320;2023-10-19T04:49:51;98501.25;;;12.86;100.00
12868;BME280;33517;49.866;8.320;2023-10-19T04:52:44;98507.56;;;12.96;100.00
12868;BME280;33517;49.866;8.320;2023-10-19T04:55:36;98495.75;;;12.99;100.00
12868;BME280;33517;49.866;8.320;2023-10-19T04:58:28;98503.44;;;13.01;100.00
12868;BME280;33517;49.866;8.320;2023-10-19T05:01:20;98505.47;;;13.05;100.00
12868;BME280;33517;49.866;8.320;2023-10-19T05:04:12;98499.72;;;13.08;100.00
12868;BME280;33517;49.866;8.320;2023-10-19T05:07:04;98502.00;;;13.05;100.00
12868;BME280;33517;49.866;8.320;2023-10-19T05:09:57;98501.81;;;12.99;100.00
12868;BME280;33517;49.866;8.320;2023-10-19T05:12:49;98494.31;;;13.03;100.00
12868;BME280;33517;49.866;8.320;2023-10-19T05:15:41;98496.78;;;12.98;100.00
12868;BME280;33517;49.866;8.320;2023-10-19T05:18:34;98493.38;;;13.09;100.00
12868;BME280;33517;49.866;8.320;2023-10-19T05:21:26;98496.41;;;13.13;100.00
12868;BME280;33517;49.866;8.320;2023-10-19T05:24:18;98486.84;;;13.23;100.00
12868;BME280;33517;49.866;8.320;2023-10-19T05:27:12;98494.78;;;13.23;100.00
12868;BME280;33517;49.866;8.320;2023-10-19T05:30:05;98490.75;;;13.32;100.00
12868;BME280;33517;49.866;8.320;2023-10-19T05:33:01;98491.56;;;13.33;100.00
12868;BME280;33517;49.866;8.320;2023-10-19T05:35:53;98493.41;;;13.32;100.00
12868;BME280;33517;49.866;8.320;2023-10-19T05:38:45;98497.19;;;13.36;100.00
12868;BME280;33517;49.866;8.320;2023-10-19T05:41:36;98488.94;;;13.33;100.00
12868;BME280;33517;49.866;8.320;2023-10-19T05:44:31;98495.13;;;13.38;100.00
12868;BME280;33517;49.866;8.320;2023-10-19T05:47:23;98490.66;;;13.39;100.00
12868;BME280;33517;49.866;8.320;2023-10-19T05:50:15;98491.81;;;13.43;100.00
12868;BME280;33517;49.866;8.320;2023-10-19T05:53:08;98485.28;;;13.45;100.00
12868;BME280;33517;49.866;8.320;2023-10-19T05:56:00;98488.25;;;13.37;100.00
12868;BME280;33517;49.866;8.320;2023-10-19T05:58:53;98494.31;;;13.38;100.00
12868;BME280;33517;49.866;8.320;2023-10-19T06:01:46;98494.91;;;13.40;100.00
12868;BME280;33517;49.866;8.320;2023-10-19T06:04:38;98503.06;;;13.50;100.00
12868;BME280;33517;49.866;8.320;2023-10-19T06:07:30;98497.91;;;13.55;100.00
12868;BME280;33517;49.866;8.320;2023-10-19T06:10:23;98490.75;;;13.55;100.00
12868;BME280;33517;49.866;8.320;2023-10-19T06:13:15;98487.34;;;13.55;100.00
12868;BME280;33517;49.866;8.320;2023-10-19T06:16:07;98492.97;;;13.58;100.00
12868;BME280;33517;49.866;8.320;2023-10-19T06:19:00;98490.44;;;13.52;100.00
12868;BME280;33517;49.866;8.320;2023-10-19T06:21:55;98488.00;;;13.62;100.00
12868;BME280;33517;49.866;8.320;2023-10-19T06:24:47;98479.03;;;13.63;100.00
12868;BME280;33517;49.866;8.320;2023-10-19T06:27:39;98485.13;;;13.75;100.00
12868;BME280;33517;49.866;8.320;2023-10-19T06:30:31;98496.59;;;13.80;100.00
12868;BME280;33517;49.866;8.320;2023-10-19T06:33:24;98499.81;;;13.82;100.00
12868;BME280;33517;49.866;8.320;2023-10-19T06:36:17;98490.97;;;13.88;100.00
12868;BME280;33517;49.866;8.320;2023-10-19T06:39:09;98499.91;;;13.87;100.00
12868;BME280;33517;49.866;8.320;2023-10-19T06:42:04;98501.31;;;13.90;100.00
12868;BME280;33517;49.866;8.320;2023-10-19T06:44:56;98496.13;;;13.95;100.00
12868;BME280;33517;49.866;8.320;2023-10-19T06:47:49;98494.59;;;13.99;100.00
12868;BME280;33517;49.866;8.320;2023-10-19T06:50:41;98498.97;;;14.05;100.00
12868;BME280;33517;49.866;8.320;2023-10-19T06:53:34;98494.13;;;14.14;99.85
12868;BME280;33517;49.866;8.320;2023-10-19T06:56:26;98496.16;;;14.23;99.41
12868;BME280;33517;49.866;8.320;2023-10-19T06:59:18;98495.47;;;14.28;99.46
12868;BME280;33517;49.866;8.320;2023-10-19T07:02:11;98488.47;;;14.33;99.60
12868;BME280;33517;49.866;8.320;2023-10-19T07:05:04;98491.75;;;14.40;99.88
12868;BME280;33517;49.866;8.320;2023-10-19T07:07:57;98487.81;;;14.54;99.39
12868;BME280;33517;49.866;8.320;2023-10-19T07:10:51;98487.72;;;14.66;98.65
12868;BME280;33517;49.866;8.320;2023-10-19T07:13:44;98501.72;;;14.78;98.86
12868;BME280;33517;49.866;8.320;2023-10-19T07:16:36;98487.28;;;14.86;98.37
12868;BME280;33517;49.866;8.320;2023-10-19T07:19:29;98492.56;;;14.86;97.78
12868;BME280;33517;49.866;8.320;2023-10-19T07:22:21;98483.03;;;14.85;98.08
12868;BME280;33517;49.866;8.320;2023-10-19T07:25:13;98488.72;;;14.93;98.69
12868;BME280;33517;49.866;8.320;2023-10-19T07:28:07;98484.88;;;15.01;97.69
12868;BME280;33517;49.866;8.320;2023-10-19T07:30:59;98494.63;;;15.12;98.19
12868;BME280;33517;49.866;8.320;2023-10-19T07:33:54;98484.31;;;15.32;97.44
12868;BME280;33517;49.866;8.320;2023-10-19T07:36:49;98494.88;;;15.43;96.56
12868;BME280;33517;49.866;8.320;2023-10-19T07:39:44;98492.13;;;15.38;96.52
12868;BME280;33517;49.866;8.320;2023-10-19T07:42:36;98486.41;;;15.46;95.96
12868;BME280;33517;49.866;8.320;2023-10-19T07:45:30;98491.25;;;15.49;95.60
12868;BME280;33517;49.866;8.320;2023-10-19T07:48:22;98483.34;;;15.54;95.76
12868;BME280;33517;49.866;8.320;2023-10-19T07:51:15;98484.22;;;15.60;95.75
12868;BME280;33517;49.866;8.320;2023-10-19T07:54:07;98485.34;;;15.64;95.42
12868;BME280;33517;49.866;8.320;2023-10-19T07:56:59;98487.38;;;15.57;95.28
12868;BME280;33517;49.866;8.320;2023-10-19T07:59:54;98478.31;;;15.53;95.85
12868;BME280;33517;49.866;8.320;2023-10-19T08:02:48;98486.00;;;15.54;95.83
12868;BME280;33517;49.866;8.320;2023-10-19T08:05:42;98480.53;;;15.61;95.45
12868;BME280;33517;49.866;8.320;2023-10-19T08:08:34;98480.25;;;16.01;94.40
12868;BME280;33517;49.866;8.320;2023-10-19T08:11:26;98494.41;;;16.76;92.31
12868;BME280;33517;49.866;8.320;2023-10-19T08:14:18;98498.13;;;17.07;90.03
12868;BME280;33517;49.866;8.320;2023-10-19T08:17:10;98499.91;;;17.28;90.05
12868;BME280;33517;49.866;8.320;2023-10-19T08:20:05;98490.47;;;17.89;88.20
12868;BME280;33517;49.866;8.320;2023-10-19T08:23:00;98490.53;;;19.01;81.98
12868;BME280;33517;49.866;8.320;2023-10-19T08:25:53;98490.53;;;19.61;81.97
12868;BME280;33517;49.866;8.320;2023-10-19T08:28:45;98492.47;;;20.30;79.03
12868;BME280;33517;49.866;8.320;2023-10-19T08:31:37;98501.06;;;20.70;78.19
12868;BME280;33517;49.866;8.320;2023-10-19T08:34:33;98485.47;;;21.26;76.76
12868;BME280;33517;49.866;8.320;2023-10-19T08:37:27;98482.75;;;22.07;74.33
12868;BME280;33517;49.866;8.320;2023-10-19T08:40:20;98474.44;;;22.88;71.36
12868;BME280;33517;49.866;8.320;2023-10-19T08:43:14;98479.63;;;22.24;70.58
12868;BME280;33517;49.866;8.320;2023-10-19T08:46:09;98470.41;;;22.30;71.35
12868;BME280;33517;49.866;8.320;2023-10-19T08:49:01;98472.84;;;21.84;71.27
12868;BME280;33517;49.866;8.320;2023-10-19T08:51:54;98479.59;;;20.85;72.97
12868;BME280;33517;49.866;8.320;2023-10-19T08:54:48;98479.00;;;19.81;74.24
12868;BME280;33517;49.866;8.320;2023-10-19T08:57:40;98480.94;;;19.00;77.26
12868;BME280;33517;49.866;8.320;2023-10-19T09:00:44;98464.38;;;18.63;78.68
12868;BME280;33517;49.866;8.320;2023-10-19T09:03:37;98470.81;;;19.22;77.65
12868;BME280;33517;49.866;8.320;2023-10-19T09:06:33;98464.75;;;20.21;75.89
12868;BME280;33517;49.866;8.320;2023-10-19T09:09:33;98458.47;;;20.40;75.98
12868;BME280;33517;49.866;8.320;2023-10-19T09:12:26;98449.38;;;20.85;75.16
12868;BME280;33517;49.866;8.320;2023-10-19T09:15:22;98444.53;;;23.13;70.83
12868;BME280;33517;49.866;8.320;2023-10-19T09:18:19;98440.09;;;22.71;70.01
12868;BME280;33517;49.866;8.320;2023-10-19T09:21:11;98446.06;;;22.08;69.15
12868;BME280;33517;49.866;8.320;2023-10-19T09:24:04;98454.97;;;21.22;72.19
12868;BME280;33517;49.866;8.320;2023-10-19T09:26:56;98453.06;;;20.50;73.40
12868;BME280;33517;49.866;8.320;2023-10-19T09:29:50;98434.00;;;20.67;73.28
12868;BME280;33517;49.866;8.320;2023-10-19T09:32:42;98421.75;;;21.52;72.71
12868;BME280;33517;49.866;8.320;2023-10-19T09:35:34;98413.38;;;23.31;68.07
12868;BME280;33517;49.866;8.320;2023-10-19T09:38:27;98424.41;;;24.38;65.11
12868;BME280;33517;49.866;8.320;2023-10-19T09:41:20;98422.56;;;23.98;64.28
12868;BME280;33517;49.866;8.320;2023-10-19T09:44:13;98425.72;;;25.29;59.08
12868;BME280;33517;49.866;8.320;2023-10-19T09:47:10;98412.53;;;26.79;57.26
12868;BME280;33517;49.866;8.320;2023-10-19T09:50:03;98405.09;;;24.36;59.34
12868;BME280;33517;49.866;8.320;2023-10-19T09:52:57;98417.53;;;23.23;62.18
12868;BME280;33517;49.866;8.320;2023-10-19T09:55:50;98412.91;;;22.41;63.19
12868;BME280;33517;49.866;8.320;2023-10-19T09:58:46;98424.84;;;20.73;69.87
12868;BME280;33517;49.866;8.320;2023-10-19T10:02:11;98421.72;;;20.66;71.47
12868;BME280;33517;49.866;8.320;2023-10-19T10:05:04;98410.22;;;20.99;71.36
12868;BME280;33517;49.866;8.320;2023-10-19T10:08:27;98415.38;;;20.57;71.22
12868;BME280;33517;49.866;8.320;2023-10-19T10:11:23;98428.34;;;20.73;71.21
12868;BME280;33517;49.866;8.320;2023-10-19T10:14:22;98423.59;;;22.22;70.26
12868;BME280;33517;49.866;8.320;2023-10-19T10:17:18;98412.41;;;23.40;65.09
12868;BME280;33517;49.866;8.320;2023-10-19T10:20:29;98411.72;;;22.84;64.55
12868;BME280;33517;49.866;8.320;2023-10-19T10:23:24;98405.75;;;22.73;65.86
12868;BME280;33517;49.866;8.320;2023-10-19T10:26:18;98401.84;;;22.98;65.60
12868;BME280;33517;49.866;8.320;2023-10-19T10:29:11;98395.19;;;21.60;67.87
12868;BME280;33517;49.866;8.320;2023-10-19T10:32:04;98400.94;;;20.91;71.13
12868;BME280;33517;49.866;8.320;2023-10-19T10:35:02;98402.72;;;20.67;72.98
12868;BME280;33517;49.866;8.320;2023-10-19T10:37:58;98405.84;;;20.41;74.34
12868;BME280;33517;49.866;8.320;2023-10-19T10:40:50;98393.91;;;19.64;77.03
12868;BME280;33517;49.866;8.320;2023-10-19T10:43:53;98396.63;;;19.49;79.29
12868;BME280;33517;49.866;8.320;2023-10-19T10:46:45;98389.47;;;19.24;79.98
12868;BME280;33517;49.866;8.320;2023-10-19T10:49:48;98397.72;;;19.48;79.77
12868;BME280;33517;49.866;8.320;2023-10-19T10:52:41;98389.75;;;19.38;79.82
12868;BME280;33517;49.866;8.320;2023-10-19T10:55:34;98382.00;;;19.37;80.12
12868;BME280;33517;49.866;8.320;2023-10-19T10:58:26;98378.19;;;19.63;78.53
12868;BME280;33517;49.866;8.320;2023-10-19T11:01:28;98382.78;;;19.42;79.19
12868;BME280;33517;49.866;8.320;2023-10-19T11:04:20;98382.31;;;19.00;81.59
12868;BME280;33517;49.866;8.320;2023-10-19T11:07:18;98374.06;;;18.96;82.55
12868;BME280;33517;49.866;8.320;2023-10-19T11:10:11;98387.06;;;19.18;80.98
12868;BME280;33517;49.866;8.320;2023-10-19T11:13:04;98386.00;;;19.19;80.59
12868;BME280;33517;49.866;8.320;2023-10-19T11:15:57;98384.41;;;19.13;80.25
12868;BME280;33517;49.866;8.320;2023-10-19T11:18:49;98383.91;;;19.11;80.72
12868;BME280;33517;49.866;8.320;2023-10-19T11:21:52;98382.31;;;19.10;81.33
12868;BME280;33517;49.866;8.320;2023-10-19T11:24:45;98371.06;;;19.18;80.96
12868;BME280;33517;49.866;8.320;2023-10-19T11:27:38;98362.56;;;19.11;80.85
12868;BME280;33517;49.866;8.320;2023-10-19T11:30:31;98364.41;;;19.10;80.51
12868;BME280;33517;49.866;8.320;2023-10-19T11:33:23;98371.31;;;19.21;80.37
12868;BME280;33517;49.866;8.320;2023-10-19T11:36:17;98367.59;;;19.27;80.27
12868;BME280;33517;49.866;8.320;2023-10-19T11:39:09;98367.31;;;19.24;80.62
12868;BME280;33517;49.866;8.320;2023-10-19T11:42:03;98348.94;;;19.33;80.50
12868;BME280;33517;49.866;8.320;2023-10-19T11:44:56;98349.97;;;19.31;80.84
12868;BME280;33517;49.866;8.320;2023-10-19T11:47:48;98340.97;;;19.02;81.99
12868;BME280;33517;49.866;8.320;2023-10-19T11:50:41;98343.13;;;18.85;83.58
12868;BME280;33517;49.866;8.320;2023-10-19T11:53:35;98337.50;;;19.07;82.87
12868;BME280;33517;49.866;8.320;2023-10-19T11:56:27;98342.06;;;18.91;84.35
12868;BME280;33517;49.866;8.320;2023-10-19T11:59:19;98331.41;;;18.86;83.97
12868;BME280;33517;49.866;8.320;2023-10-19T12:02:13;98331.69;;;18.85;84.65
12868;BME280;33517;49.866;8.320;2023-10-19T12:05:09;98333.00;;;18.92;83.96
12868;BME280;33517;49.866;8.320;2023-10-19T12:08:03;98327.44;;;18.64;85.60
12868;BME280;33517;49.866;8.320;2023-10-19T12:10:55;98321.59;;;18.62;86.60
12868;BME280;33517;49.866;8.320;2023-10-19T12:13:47;98330.38;;;18.67;86.07
12868;BME280;33517;49.866;8.320;2023-10-19T12:16:39;98333.56;;;18.49;86.38
12868;BME280;33517;49.866;8.320;2023-10-19T12:19:33;98333.78;;;18.17;88.50
12868;BME280;33517;49.866;8.320;2023-10-19T12:22:25;98337.50;;;18.26;88.11
12868;BME280;33517;49.866;8.320;2023-10-19T12:25:19;98338.03;;;18.18;88.37
12868;BME280;33517;49.866;8.320;2023-10-19T12:28:11;98345.50;;;18.11;89.18
12868;BME280;33517;49.866;8.320;2023-10-19T12:31:05;98339.34;;;18.06;89.02
12868;BME280;33517;49.866;8.320;2023-10-19T12:33:59;98332.38;;;17.85;90.76
12868;BME280;33517;49.866;8.320;2023-10-19T12:36:52;98335.56;;;17.72;91.74
12868;BME280;33517;49.866;8.320;2023-10-19T12:39:47;98322.00;;;17.83;91.73
12868;BME280;33517;49.866;8.320;2023-10-19T12:42:41;98321.44;;;17.76;93.23
12868;BME280;33517;49.866;8.320;2023-10-19T12:45:33;98314.03;;;17.83;91.74
12868;BME280;33517;49.866;8.320;2023-10-19T12:48:27;98307.41;;;18.01;90.56
12868;BME280;33517;49.866;8.320;2023-10-19T12:51:24;98309.56;;;18.14;89.80
12868;BME280;33517;49.866;8.320;2023-10-19T12:54:18;98306.63;;;18.30;88.80
12868;BME280;33517;49.866;8.320;2023-10-19T12:57:10;98294.91;;;18.41;89.05
12868;BME280;33517;49.866;8.320;2023-10-19T13:00:02;98289.06;;;18.39;89.83
12868;BME280;33517;49.866;8.320;2023-10-19T13:03:14;98277.09;;;18.57;89.76
12868;BME280;33517;49.866;8.320;2023-10-19T13:06:06;98272.84;;;18.56;89.77
12868;BME280;33517;49.866;8.320;2023-10-19T13:08:58;98285.88;;;18.68;89.89
12868;BME280;33517;49.866;8.320;2023-10-19T13:11:52;98287.22;;;18.55;89.43
12868;BME280;33517;49.866;8.320;2023-10-19T13:14:44;98298.63;;;18.20;90.63
12868;BME280;33517;49.866;8.320;2023-10-19T13:17:35;98292.50;;;18.15;91.91
12868;BME280;33517;49.866;8.320;2023-10-19T13:20:28;98308.75;;;17.98;91.92
12868;BME280;33517;49.866;8.320;2023-10-19T13:23:24;98300.22;;;17.96;93.26
12868;BME280;33517;49.866;8.320;2023-10-19T13:26:19;98303.13;;;17.90;92.86
12868;BME280;33517;49.866;8.320;2023-10-19T13:29:12;98307.38;;;17.81;94.36
12868;BME280;33517;49.866;8.320;2023-10-19T13:32:05;98298.03;;;17.68;94.95
12868;BME280;33517;49.866;8.320;2023-10-19T13:34:57;98291.59;;;17.59;95.82
12868;BME280;33517;49.866;8.320;2023-10-19T13:37:49;98284.97;;;17.57;95.40
12868;BME280;33517;49.866;8.320;2023-10-19T13:40:42;98285.88;;;17.30;96.78
12868;BME280;33517;49.866;8.320;2023-10-19T13:43:35;98279.31;;;17.43;96.89
12868;BME280;33517;49.866;8.320;2023-10-19T13:46:28;98271.63;;;17.52;96.45
12868;BME280;33517;49.866;8.320;2023-10-19T13:49:21;98265.81;;;17.55;96.23
12868;BME280;33517;49.866;8.320;2023-10-19T13:52:13;98267.31;;;17.35;97.24
12868;BME280;33517;49.866;8.320;2023-10-19T13:55:07;98270.47;;;17.27;98.08
12868;BME280;33517;49.866;8.320;2023-10-19T13:57:59;98271.44;;;17.06;97.95
12868;BME280;33517;49.866;8.320;2023-10-19T14:00:52;98269.28;;;17.03;99.47
12868;BME280;33517;49.866;8.320;2023-10-19T14:03:45;98256.22;;;16.92;100.00
12868;BME280;33517;49.866;8.320;2023-10-19T14:06:37;98258.06;;;16.91;100.00
12868;BME280;33517;49.866;8.320;2023-10-19T14:09:29;98252.72;;;16.86;100.00
12868;BME280;33517;49.866;8.320;2023-10-19T14:12:22;98251.69;;;16.87;100.00
12868;BME280;33517;49.866;8.320;2023-10-19T14:15:15;98244.75;;;16.86;100.00
12868;BME280;33517;49.866;8.320;2023-10-19T14:18:08;98246.09;;;16.84;100.00
12868;BME280;33517;49.866;8.320;2023-10-19T14:21:10;98242.81;;;16.67;100.00
12868;BME280;33517;49.866;8.320;2023-10-19T14:24:02;98230.28;;;16.62;100.00
12868;BME280;33517;49.866;8.320;2023-10-19T14:26:54;98228.38;;;16.52;100.00
12868;BME280;33517;49.866;8.320;2023-10-19T14:29:46;98225.19;;;16.55;100.00
12868;BME280;33517;49.866;8.320;2023-10-19T14:32:39;98213.25;;;16.53;100.00
12868;BME280;33517;49.866;8.320;2023-10-19T14:35:32;98204.47;;;16.52;100.00
12868;BME280;33517;49.866;8.320;2023-10-19T14:38:28;98195.97;;;16.50;100.00
12868;BME280;33517;49.866;8.320;2023-10-19T14:41:20;98185.41;;;16.61;100.00
12868;BME280;33517;49.866;8.320;2023-10-19T14:44:13;98171.09;;;16.67;100.00
12868;BME280;33517;49.866;8.320;2023-10-19T14:47:05;98162.94;;;16.83;100.00
12868;BME280;33517;49.866;8.320;2023-10-19T14:49:57;98147.31;;;17.02;100.00
12868;BME280;33517;49.866;8.320;2023-10-19T14:52:50;98135.13;;;17.11;100.00
12868;BME280;33517;49.866;8.320;2023-10-19T14:55:44;98108.03;;;17.14;99.89
12868;BME280;33517;49.866;8.320;2023-10-19T14:58:36;98098.97;;;17.15;99.29
12868;BME280;33517;49.866;8.320;2023-10-19T15:01:28;98075.06;;;17.20;99.45
12868;BME280;33517;49.866;8.320;2023-10-19T15:04:20;98072.69;;;17.33;99.22
12868;BME280;33517;49.866;8.320;2023-10-19T15:07:12;98082.00;;;17.41;98.08
12868;BME280;33517;49.866;8.320;2023-10-19T15:10:05;98089.97;;;17.46;98.46
12868;BME280;33517;49.866;8.320;2023-10-19T15:13:02;98082.53;;;17.53;98.38
12868;BME280;33517;49.866;8.320;2023-10-19T15:15:56;98076.44;;;17.58;97.34